sensor_id;sensor_type;location;lat;lon;timestamp;P1;durP1;ratioP1;P2;durP2;ratioP2
7479;SDS011;3781;42.272;22.658;2023-04-12T00:01:41;2.23;;;1.57;;
7479;SDS011;3781;42.272;22.658;2023-04-12T00:04:08;4.77;;;1.87;;
7479;SDS011;3781;42.272;22.658;2023-04-12T00:06:38;1.83;;;1.73;;
7479;SDS011;3781;42.272;22.658;2023-04-12T00:09:05;3.00;;;1.77;;
7479;SDS011;3781;42.272;22.658;2023-04-12T00:11:34;6.03;;;3.00;;
7479;SDS011;3781;42.272;22.658;2023-04-12T00:14:00;6.17;;;1.63;;
7479;SDS011;3781;42.272;22.658;2023-04-12T00:16:27;2.27;;;1.93;;
7479;SDS011;3781;42.272;22.658;2023-04-12T00:18:54;6.43;;;1.60;;
7479;SDS011;3781;42.272;22.658;2023-04-12T00:21:21;3.40;;;1.53;;
7479;SDS011;3781;42.272;22.658;2023-04-12T00:23:48;7.07;;;3.27;;
7479;SDS011;3781;42.272;22.658;2023-04-12T00:26:15;3.00;;;1.80;;
7479;SDS011;3781;42.272;22.658;2023-04-12T00:28:43;2.43;;;1.80;;
7479;SDS011;3781;42.272;22.658;2023-04-12T00:31:10;2.17;;;1.70;;
7479;SDS011;3781;42.272;22.658;2023-04-12T00:33:37;4.77;;;2.80;;
7479;SDS011;3781;42.272;22.658;2023-04-12T00:36:03;0.93;;;0.93;;
7479;SDS011;3781;42.272;22.658;2023-04-12T00:38:31;2.53;;;2.33;;
7479;SDS011;3781;42.272;22.658;2023-04-12T00:40:57;3.13;;;2.20;;
7479;SDS011;3781;42.272;22.658;2023-04-12T00:43:25;1.60;;;1.50;;
7479;SDS011;3781;42.272;22.658;2023-04-12T00:45:54;2.90;;;1.47;;
7479;SDS011;3781;42.272;22.658;2023-04-12T00:48:23;1.43;;;1.33;;
7479;SDS011;3781;42.272;22.658;2023-04-12T00:50:50;2.80;;;2.23;;
7479;SDS011;3781;42.272;22.658;2023-04-12T00:53:19;1.47;;;0.70;;
7479;SDS011;3781;42.272;22.658;2023-04-12T00:55:47;2.17;;;1.90;;
7479;SDS011;3781;42.272;22.658;2023-04-12T00:58:15;8.53;;;1.13;;
7479;SDS011;3781;42.272;22.658;2023-04-12T01:00:42;3.57;;;2.50;;
7479;SDS011;3781;42.272;22.658;2023-04-12T01:03:15;4.03;;;2.73;;
7479;SDS011;3781;42.272;22.658;2023-04-12T01:05:49;2.83;;;2.03;;
7479;SDS011;3781;42.272;22.658;2023-04-12T01:08:35;5.00;;;2.87;;
7479;SDS011;3781;42.272;22.658;2023-04-12T01:11:12;2.83;;;1.67;;
7479;SDS011;3781;42.272;22.658;2023-04-12T01:13:44;3.73;;;2.17;;
7479;SDS011;3781;42.272;22.658;2023-04-12T01:16:18;1.53;;;1.30;;
7479;SDS011;3781;42.272;22.658;2023-04-12T01:18:56;2.50;;;1.80;;
7479;SDS011;3781;42.272;22.658;2023-04-12T01:21:29;4.20;;;1.83;;
7479;SDS011;3781;42.272;22.658;2023-04-12T01:24:02;4.20;;;2.43;;
7479;SDS011;3781;42.272;22.658;2023-04-12T01:26:46;3.50;;;2.47;;
7479;SDS011;3781;42.272;22.658;2023-04-12T01:29:15;2.30;;;1.57;;
7479;SDS011;3781;42.272;22.658;2023-04-12T01:31:48;5.03;;;3.30;;
7479;SDS011;3781;42.272;22.658;2023-04-12T01:34:17;1.97;;;1.53;;
7479;SDS011;3781;42.272;22.658;2023-04-12T01:36:45;1.70;;;1.50;;
7479;SDS011;3781;42.272;22.658;2023-04-12T01:39:13;1.00;;;0.90;;
7479;SDS011;3781;42.272;22.658;2023-04-12T01:41:40;1.87;;;1.30;;
7479;SDS011;3781;42.272;22.658;2023-04-12T01:44:11;3.10;;;2.30;;
7479;SDS011;3781;42.272;22.658;2023-04-12T01:46:40;0.43;;;0.37;;
7479;SDS011;3781;42.272;22.658;2023-04-12T01:49:08;3.70;;;1.80;;
7479;SDS011;3781;42.272;22.658;2023-04-12T01:51:38;2.13;;;1.50;;
7479;SDS011;3781;42.272;22.658;2023-04-12T01:54:19;2.03;;;1.63;;
7479;SDS011;3781;42.272;22.658;2023-04-12T01:56:49;3.67;;;0.53;;
7479;SDS011;3781;42.272;22.658;2023-04-12T01:59:19;3.60;;;1.60;;
7479;SDS011;3781;42.272;22.658;2023-04-12T02:01:50;1.57;;;1.47;;
7479;SDS011;3781;42.272;22.658;2023-04-12T02:04:18;2.10;;;1.90;;
7479;SDS011;3781;42.272;22.658;2023-04-12T02:06:46;1.77;;;1.20;;
7479;SDS011;3781;42.272;22.658;2023-04-12T02:09:13;7.40;;;2.47;;
7479;SDS011;3781;42.272;22.658;2023-04-12T02:11:40;4.80;;;2.57;;
7479;SDS011;3781;42.272;22.658;2023-04-12T02:14:12;3.57;;;1.67;;
7479;SDS011;3781;42.272;22.658;2023-04-12T02:16:38;1.80;;;1.40;;
7479;SDS011;3781;42.272;22.658;2023-04-12T02:19:07;5.23;;;2.03;;
7479;SDS011;3781;42.272;22.658;2023-04-12T02:21:38;4.53;;;2.53;;
7479;SDS011;3781;42.272;22.658;2023-04-12T02:24:06;3.20;;;2.63;;
7479;SDS011;3781;42.272;22.658;2023-04-12T02:26:33;3.00;;;2.03;;
7479;SDS011;3781;42.272;22.658;2023-04-12T02:29:00;6.77;;;3.63;;
7479;SDS011;3781;42.272;22.658;2023-04-12T02:31:27;3.20;;;2.30;;
7479;SDS011;3781;42.272;22.658;2023-04-12T02:33:54;8.03;;;3.13;;
7479;SDS011;3781;42.272;22.658;2023-04-12T02:36:22;3.57;;;1.73;;
7479;SDS011;3781;42.272;22.658;2023-04-12T02:38:49;1.73;;;1.60;;
7479;SDS011;3781;42.272;22.658;2023-04-12T02:41:16;2.87;;;2.30;;
7479;SDS011;3781;42.272;22.658;2023-04-12T02:43:43;2.60;;;2.40;;
7479;SDS011;3781;42.272;22.658;2023-04-12T02:46:13;3.37;;;1.93;;
7479;SDS011;3781;42.272;22.658;2023-04-12T02:48:43;3.20;;;1.87;;
7479;SDS011;3781;42.272;22.658;2023-04-12T02:51:10;2.83;;;2.03;;
7479;SDS011;3781;42.272;22.658;2023-04-12T02:53:38;1.77;;;1.47;;
7479;SDS011;3781;42.272;22.658;2023-04-12T02:56:05;5.00;;;2.23;;
7479;SDS011;3781;42.272;22.658;2023-04-12T02:58:34;2.57;;;2.37;;
7479;SDS011;3781;42.272;22.658;2023-04-12T03:01:01;4.70;;;1.93;;
7479;SDS011;3781;42.272;22.658;2023-04-12T03:03:32;4.70;;;1.77;;
7479;SDS011;3781;42.272;22.658;2023-04-12T03:05:59;2.97;;;1.83;;
7479;SDS011;3781;42.272;22.658;2023-04-12T03:08:26;2.43;;;2.23;;
7479;SDS011;3781;42.272;22.658;2023-04-12T03:10:54;3.70;;;2.50;;
7479;SDS011;3781;42.272;22.658;2023-04-12T03:13:21;2.53;;;2.33;;
7479;SDS011;3781;42.272;22.658;2023-04-12T03:15:48;3.10;;;2.80;;
7479;SDS011;3781;42.272;22.658;2023-04-12T03:18:20;4.33;;;1.97;;
7479;SDS011;3781;42.272;22.658;2023-04-12T03:20:47;4.30;;;2.40;;
7479;SDS011;3781;42.272;22.658;2023-04-12T03:23:14;4.80;;;3.40;;
7479;SDS011;3781;42.272;22.658;2023-04-12T03:25:41;3.03;;;2.60;;
7479;SDS011;3781;42.272;22.658;2023-04-12T03:28:10;1.97;;;1.77;;
7479;SDS011;3781;42.272;22.658;2023-04-12T03:30:37;2.43;;;1.27;;
7479;SDS011;3781;42.272;22.658;2023-04-12T03:33:03;3.90;;;2.23;;
7479;SDS011;3781;42.272;22.658;2023-04-12T03:35:30;2.17;;;1.40;;
7479;SDS011;3781;42.272;22.658;2023-04-12T03:37:57;2.13;;;1.23;;
7479;SDS011;3781;42.272;22.658;2023-04-12T03:40:24;4.50;;;2.07;;
7479;SDS011;3781;42.272;22.658;2023-04-12T03:42:50;6.50;;;2.53;;
7479;SDS011;3781;42.272;22.658;2023-04-12T03:45:19;3.33;;;2.93;;
7479;SDS011;3781;42.272;22.658;2023-04-12T03:47:46;7.40;;;3.53;;
7479;SDS011;3781;42.272;22.658;2023-04-12T03:50:12;4.07;;;3.10;;
7479;SDS011;3781;42.272;22.658;2023-04-12T03:52:39;4.63;;;3.17;;
7479;SDS011;3781;42.272;22.658;2023-04-12T03:55:06;6.33;;;3.17;;
7479;SDS011;3781;42.272;22.658;2023-04-12T03:57:33;3.67;;;3.17;;
7479;SDS011;3781;42.272;22.658;2023-04-12T04:00:00;4.40;;;2.90;;
7479;SDS011;3781;42.272;22.658;2023-04-12T04:02:29;4.33;;;3.30;;
7479;SDS011;3781;42.272;22.658;2023-04-12T04:04:56;5.47;;;2.93;;
7479;SDS011;3781;42.272;22.658;2023-04-12T04:07:23;3.47;;;2.00;;
7479;SDS011;3781;42.272;22.658;2023-04-12T04:09:49;5.70;;;3.53;;
7479;SDS011;3781;42.272;22.658;2023-04-12T04:12:16;3.70;;;2.40;;
7479;SDS011;3781;42.272;22.658;2023-04-12T04:14:43;4.37;;;2.73;;
7479;SDS011;3781;42.272;22.658;2023-04-12T04:17:10;4.23;;;3.20;;
7479;SDS011;3781;42.272;22.658;2023-04-12T04:19:38;2.60;;;2.27;;
7479;SDS011;3781;42.272;22.658;2023-04-12T04:22:05;4.30;;;2.13;;
7479;SDS011;3781;42.272;22.658;2023-04-12T04:24:32;1.57;;;1.47;;
7479;SDS011;3781;42.272;22.658;2023-04-12T04:27:03;1.63;;;1.43;;
7479;SDS011;3781;42.272;22.658;2023-04-12T04:29:30;1.53;;;1.23;;
7479;SDS011;3781;42.272;22.658;2023-04-12T04:31:57;4.80;;;2.37;;
7479;SDS011;3781;42.272;22.658;2023-04-12T04:34:24;3.23;;;1.33;;
7479;SDS011;3781;42.272;22.658;2023-04-12T04:36:52;1.60;;;1.50;;
7479;SDS011;3781;42.272;22.658;2023-04-12T04:39:19;6.63;;;2.17;;
7479;SDS011;3781;42.272;22.658;2023-04-12T04:41:46;1.57;;;1.47;;
7479;SDS011;3781;42.272;22.658;2023-04-12T04:44:18;2.53;;;1.20;;
7479;SDS011;3781;42.272;22.658;2023-04-12T04:46:46;2.57;;;1.70;;
7479;SDS011;3781;42.272;22.658;2023-04-12T04:49:14;1.90;;;1.63;;
7479;SDS011;3781;42.272;22.658;2023-04-12T04:51:40;1.00;;;0.93;;
7479;SDS011;3781;42.272;22.658;2023-04-12T04:54:08;1.97;;;1.53;;
7479;SDS011;3781;42.272;22.658;2023-04-12T04:56:35;1.07;;;0.87;;
7479;SDS011;3781;42.272;22.658;2023-04-12T04:59:02;4.70;;;2.30;;
7479;SDS011;3781;42.272;22.658;2023-04-12T05:01:29;2.33;;;1.63;;
7479;SDS011;3781;42.272;22.658;2023-04-12T05:03:56;1.10;;;1.03;;
7479;SDS011;3781;42.272;22.658;2023-04-12T05:06:22;1.33;;;1.03;;
7479;SDS011;3781;42.272;22.658;2023-04-12T05:08:49;2.17;;;1.23;;
7479;SDS011;3781;42.272;22.658;2023-04-12T05:11:18;2.73;;;1.83;;
7479;SDS011;3781;42.272;22.658;2023-04-12T05:13:46;2.10;;;1.17;;
7479;SDS011;3781;42.272;22.658;2023-04-12T05:16:12;1.07;;;0.70;;
7479;SDS011;3781;42.272;22.658;2023-04-12T05:18:39;1.77;;;1.67;;
7479;SDS011;3781;42.272;22.658;2023-04-12T05:21:06;1.77;;;1.23;;
7479;SDS011;3781;42.272;22.658;2023-04-12T05:23:33;1.83;;;1.73;;
7479;SDS011;3781;42.272;22.658;2023-04-12T05:26:02;0.97;;;0.90;;
7479;SDS011;3781;42.272;22.658;2023-04-12T05:28:30;1.47;;;1.10;;
7479;SDS011;3781;42.272;22.658;2023-04-12T05:30:57;1.53;;;1.00;;
7479;SDS011;3781;42.272;22.658;2023-04-12T05:33:24;3.63;;;1.57;;
7479;SDS011;3781;42.272;22.658;2023-04-12T05:35:50;1.33;;;0.43;;
7479;SDS011;3781;42.272;22.658;2023-04-12T05:38:17;1.10;;;1.00;;
7479;SDS011;3781;42.272;22.658;2023-04-12T05:40:44;1.53;;;1.43;;
7479;SDS011;3781;42.272;22.658;2023-04-12T05:43:11;1.07;;;0.80;;
7479;SDS011;3781;42.272;22.658;2023-04-12T05:45:39;1.60;;;0.90;;
7479;SDS011;3781;42.272;22.658;2023-04-12T05:48:06;1.23;;;1.13;;
7479;SDS011;3781;42.272;22.658;2023-04-12T05:50:33;0.83;;;0.80;;
7479;SDS011;3781;42.272;22.658;2023-04-12T05:53:00;2.40;;;1.60;;
7479;SDS011;3781;42.272;22.658;2023-04-12T05:55:27;0.40;;;0.40;;
7479;SDS011;3781;42.272;22.658;2023-04-12T05:57:54;1.73;;;0.60;;
7479;SDS011;3781;42.272;22.658;2023-04-12T06:00:21;1.00;;;0.53;;
7479;SDS011;3781;42.272;22.658;2023-04-12T06:02:49;0.63;;;0.63;;
7479;SDS011;3781;42.272;22.658;2023-04-12T06:05:16;3.63;;;1.20;;
7479;SDS011;3781;42.272;22.658;2023-04-12T06:07:43;4.03;;;2.30;;
7479;SDS011;3781;42.272;22.658;2023-04-12T06:10:12;2.20;;;1.67;;
7479;SDS011;3781;42.272;22.658;2023-04-12T06:12:40;7.93;;;3.97;;
7479;SDS011;3781;42.272;22.658;2023-04-12T06:15:07;9.03;;;4.03;;
7479;SDS011;3781;42.272;22.658;2023-04-12T06:17:35;3.60;;;2.10;;
7479;SDS011;3781;42.272;22.658;2023-04-12T06:20:03;3.47;;;1.70;;
7479;SDS011;3781;42.272;22.658;2023-04-12T06:22:31;0.70;;;0.53;;
7479;SDS011;3781;42.272;22.658;2023-04-12T06:24:58;2.13;;;0.40;;
7479;SDS011;3781;42.272;22.658;2023-04-12T06:27:25;0.80;;;0.80;;
7479;SDS011;3781;42.272;22.658;2023-04-12T06:29:52;0.70;;;0.70;;
7479;SDS011;3781;42.272;22.658;2023-04-12T06:32:21;1.37;;;0.20;;
7479;SDS011;3781;42.272;22.658;2023-04-12T06:34:48;0.30;;;0.30;;
7479;SDS011;3781;42.272;22.658;2023-04-12T06:37:16;0.20;;;0.20;;
7479;SDS011;3781;42.272;22.658;2023-04-12T06:39:43;3.17;;;1.53;;
7479;SDS011;3781;42.272;22.658;2023-04-12T06:42:09;0.73;;;0.73;;
7479;SDS011;3781;42.272;22.658;2023-04-12T06:44:36;3.20;;;0.83;;
7479;SDS011;3781;42.272;22.658;2023-04-12T06:47:03;0.10;;;0.10;;
7479;SDS011;3781;42.272;22.658;2023-04-12T06:49:30;1.40;;;0.20;;
7479;SDS011;3781;42.272;22.658;2023-04-12T06:51:56;0.27;;;0.27;;
7479;SDS011;3781;42.272;22.658;2023-04-12T06:54:25;0.13;;;0.13;;
7479;SDS011;3781;42.272;22.658;2023-04-12T06:56:52;0.77;;;0.20;;
7479;SDS011;3781;42.272;22.658;2023-04-12T06:59:18;0.73;;;0.73;;
7479;SDS011;3781;42.272;22.658;2023-04-12T07:01:45;0.60;;;0.23;;
7479;SDS011;3781;42.272;22.658;2023-04-12T07:04:12;0.40;;;0.20;;
7479;SDS011;3781;42.272;22.658;2023-04-12T07:06:40;1.53;;;0.63;;
7479;SDS011;3781;42.272;22.658;2023-04-12T07:09:07;1.73;;;1.13;;
7479;SDS011;3781;42.272;22.658;2023-04-12T07:11:35;3.00;;;1.50;;
7479;SDS011;3781;42.272;22.658;2023-04-12T07:14:02;4.07;;;0.70;;
7479;SDS011;3781;42.272;22.658;2023-04-12T07:16:29;0.73;;;0.70;;
7479;SDS011;3781;42.272;22.658;2023-04-12T07:18:56;2.20;;;0.77;;
7479;SDS011;3781;42.272;22.658;2023-04-12T07:21:23;1.13;;;0.93;;
7479;SDS011;3781;42.272;22.658;2023-04-12T07:23:51;0.87;;;0.87;;
7479;SDS011;3781;42.272;22.658;2023-04-12T07:26:18;0.50;;;0.50;;
7479;SDS011;3781;42.272;22.658;2023-04-12T07:28:47;1.10;;;0.40;;
7479;SDS011;3781;42.272;22.658;2023-04-12T07:31:13;0.77;;;0.57;;
7479;SDS011;3781;42.272;22.658;2023-04-12T07:33:40;0.23;;;0.23;;
7479;SDS011;3781;42.272;22.658;2023-04-12T07:36:07;1.80;;;0.43;;
7479;SDS011;3781;42.272;22.658;2023-04-12T07:38:35;1.17;;;0.30;;
7479;SDS011;3781;42.272;22.658;2023-04-12T07:41:01;2.53;;;0.87;;
7479;SDS011;3781;42.272;22.658;2023-04-12T07:43:28;0.70;;;0.70;;
7479;SDS011;3781;42.272;22.658;2023-04-12T07:46:00;0.53;;;0.53;;
7479;SDS011;3781;42.272;22.658;2023-04-12T07:48:32;2.30;;;0.43;;
7479;SDS011;3781;42.272;22.658;2023-04-12T07:50:59;0.30;;;0.30;;
7479;SDS011;3781;42.272;22.658;2023-04-12T07:53:26;1.00;;;0.93;;
7479;SDS011;3781;42.272;22.658;2023-04-12T07:55:54;3.50;;;0.53;;
7479;SDS011;3781;42.272;22.658;2023-04-12T07:58:22;0.73;;;0.73;;
7479;SDS011;3781;42.272;22.658;2023-04-12T08:00:50;0.73;;;0.73;;
7479;SDS011;3781;42.272;22.658;2023-04-12T08:03:19;1.80;;;1.00;;
7479;SDS011;3781;42.272;22.658;2023-04-12T08:05:47;0.70;;;0.70;;
7479;SDS011;3781;42.272;22.658;2023-04-12T08:08:17;1.00;;;0.90;;
7479;SDS011;3781;42.272;22.658;2023-04-12T08:10:44;2.40;;;1.17;;
7479;SDS011;3781;42.272;22.658;2023-04-12T08:13:14;1.07;;;0.60;;
7479;SDS011;3781;42.272;22.658;2023-04-12T08:15:41;0.40;;;0.40;;
7479;SDS011;3781;42.272;22.658;2023-04-12T08:18:12;2.00;;;0.63;;
7479;SDS011;3781;42.272;22.658;2023-04-12T08:20:40;0.40;;;0.30;;
7479;SDS011;3781;42.272;22.658;2023-04-12T08:23:08;1.07;;;0.30;;
7479;SDS011;3781;42.272;22.658;2023-04-12T08:25:36;3.97;;;1.23;;
7479;SDS011;3781;42.272;22.658;2023-04-12T08:28:03;0.40;;;0.40;;
7479;SDS011;3781;42.272;22.658;2023-04-12T08:30:31;0.50;;;0.50;;
7479;SDS011;3781;42.272;22.658;2023-04-12T08:32:58;2.37;;;0.57;;
7479;SDS011;3781;42.272;22.658;2023-04-12T08:35:25;0.53;;;0.53;;
7479;SDS011;3781;42.272;22.658;2023-04-12T08:37:53;1.10;;;0.83;;
7479;SDS011;3781;42.272;22.658;2023-04-12T08:40:20;0.27;;;0.27;;
7479;SDS011;3781;42.272;22.658;2023-04-12T08:42:47;3.83;;;0.80;;
7479;SDS011;3781;42.272;22.658;2023-04-12T08:45:14;0.77;;;0.77;;
7479;SDS011;3781;42.272;22.658;2023-04-12T08:47:41;0.30;;;0.27;;
7479;SDS011;3781;42.272;22.658;2023-04-12T08:50:11;0.60;;;0.60;;
7479;SDS011;3781;42.272;22.658;2023-04-12T08:52:38;0.50;;;0.50;;
7479;SDS011;3781;42.272;22.658;2023-04-12T08:55:09;2.93;;;1.20;;
7479;SDS011;3781;42.272;22.658;2023-04-12T08:57:38;0.40;;;0.40;;
7479;SDS011;3781;42.272;22.658;2023-04-12T09:00:08;1.90;;;1.00;;
7479;SDS011;3781;42.272;22.658;2023-04-12T09:02:39;1.20;;;0.87;;
7479;SDS011;3781;42.272;22.658;2023-04-12T09:05:10;1.50;;;0.47;;
7479;SDS011;3781;42.272;22.658;2023-04-12T09:07:47;2.47;;;1.43;;
7479;SDS011;3781;42.272;22.658;2023-04-12T09:10:28;0.53;;;0.53;;
7479;SDS011;3781;42.272;22.658;2023-04-12T09:12:56;0.70;;;0.57;;
7479;SDS011;3781;42.272;22.658;2023-04-12T09:15:23;0.30;;;0.30;;
7479;SDS011;3781;42.272;22.658;2023-04-12T09:17:59;1.07;;;0.50;;
7479;SDS011;3781;42.272;22.658;2023-04-12T09:20:29;2.77;;;0.80;;
7479;SDS011;3781;42.272;22.658;2023-04-12T09:22:58;1.47;;;0.57;;
7479;SDS011;3781;42.272;22.658;2023-04-12T09:25:38;0.47;;;0.37;;
7479;SDS011;3781;42.272;22.658;2023-04-12T09:28:16;2.43;;;1.30;;
7479;SDS011;3781;42.272;22.658;2023-04-12T09:30:45;0.70;;;0.70;;
7479;SDS011;3781;42.272;22.658;2023-04-12T09:33:16;0.37;;;0.37;;
7479;SDS011;3781;42.272;22.658;2023-04-12T09:35:46;1.43;;;0.83;;
7479;SDS011;3781;42.272;22.658;2023-04-12T09:38:13;0.97;;;0.97;;
7479;SDS011;3781;42.272;22.658;2023-04-12T09:40:42;1.30;;;1.20;;
7479;SDS011;3781;42.272;22.658;2023-04-12T09:43:09;0.83;;;0.80;;
7479;SDS011;3781;42.272;22.658;2023-04-12T09:45:36;1.57;;;1.03;;
7479;SDS011;3781;42.272;22.658;2023-04-12T09:48:04;0.73;;;0.60;;
7479;SDS011;3781;42.272;22.658;2023-04-12T09:50:32;1.70;;;1.23;;
7479;SDS011;3781;42.272;22.658;2023-04-12T09:53:00;1.07;;;0.93;;
7479;SDS011;3781;42.272;22.658;2023-04-12T09:55:28;0.83;;;0.83;;
7479;SDS011;3781;42.272;22.658;2023-04-12T09:57:59;2.30;;;1.60;;
7479;SDS011;3781;42.272;22.658;2023-04-12T10:00:28;7.27;;;3.83;;
7479;SDS011;3781;42.272;22.658;2023-04-12T10:02:58;10.50;;;5.70;;
7479;SDS011;3781;42.272;22.658;2023-04-12T10:05:25;0.47;;;0.40;;
7479;SDS011;3781;42.272;22.658;2023-04-12T10:07:52;0.50;;;0.50;;
7479;SDS011;3781;42.272;22.658;2023-04-12T10:10:19;4.73;;;1.63;;
7479;SDS011;3781;42.272;22.658;2023-04-12T10:12:47;0.97;;;0.57;;
7479;SDS011;3781;42.272;22.658;2023-04-12T10:15:16;2.60;;;0.83;;
7479;SDS011;3781;42.272;22.658;2023-04-12T10:17:46;4.53;;;0.53;;
7479;SDS011;3781;42.272;22.658;2023-04-12T10:20:14;1.43;;;1.33;;
7479;SDS011;3781;42.272;22.658;2023-04-12T10:22:42;0.17;;;0.17;;
7479;SDS011;3781;42.272;22.658;2023-04-12T10:25:11;0.17;;;0.17;;
7479;SDS011;3781;42.272;22.658;2023-04-12T10:27:40;0.27;;;0.27;;
7479;SDS011;3781;42.272;22.658;2023-04-12T10:30:22;1.00;;;0.47;;
7479;SDS011;3781;42.272;22.658;2023-04-12T10:35:50;0.00;;;0.00;;
7479;SDS011;3781;42.272;22.658;2023-04-12T10:38:19;1.20;;;0.37;;
7479;SDS011;3781;42.272;22.658;2023-04-12T10:41:11;0.70;;;0.40;;
7479;SDS011;3781;42.272;22.658;2023-04-12T10:43:40;0.40;;;0.40;;
7479;SDS011;3781;42.272;22.658;2023-04-12T10:46:08;0.00;;;0.00;;
7479;SDS011;3781;42.272;22.658;2023-04-12T10:49:16;0.57;;;0.57;;
7479;SDS011;3781;42.272;22.658;2023-04-12T10:54:43;0.20;;;0.20;;
7479;SDS011;3781;42.272;22.658;2023-04-12T11:00:08;0.20;;;0.20;;
7479;SDS011;3781;42.272;22.658;2023-04-12T11:08:23;0.30;;;0.10;;
7479;SDS011;3781;42.272;22.658;2023-04-12T11:10:52;0.40;;;0.10;;
7479;SDS011;3781;42.272;22.658;2023-04-12T11:13:25;0.00;;;0.00;;
7479;SDS011;3781;42.272;22.658;2023-04-12T11:15:53;0.60;;;0.50;;
7479;SDS011;3781;42.272;22.658;2023-04-12T11:18:23;0.50;;;0.50;;
7479;SDS011;3781;42.272;22.658;2023-04-12T11:20:50;0.50;;;0.50;;
7479;SDS011;3781;42.272;22.658;2023-04-12T11:23:17;0.93;;;0.60;;
7479;SDS011;3781;42.272;22.658;2023-04-12T11:25:48;0.63;;;0.60;;
7479;SDS011;3781;42.272;22.658;2023-04-12T11:28:15;2.43;;;0.30;;
7479;SDS011;3781;42.272;22.658;2023-04-12T11:30:47;1.00;;;0.90;;
7479;SDS011;3781;42.272;22.658;2023-04-12T11:33:31;0.50;;;0.17;;
7479;SDS011;3781;42.272;22.658;2023-04-12T11:35:58;1.70;;;0.53;;
7479;SDS011;3781;42.272;22.658;2023-04-12T11:38:28;6.80;;;1.63;;
7479;SDS011;3781;42.272;22.658;2023-04-12T11:40:55;0.50;;;0.43;;
7479;SDS011;3781;42.272;22.658;2023-04-12T11:43:22;0.00;;;0.00;;
7479;SDS011;3781;42.272;22.658;2023-04-12T11:45:54;2.67;;;1.57;;
7479;SDS011;3781;42.272;22.658;2023-04-12T11:48:23;0.90;;;0.50;;
7479;SDS011;3781;42.272;22.658;2023-04-12T11:50:52;2.43;;;0.73;;
7479;SDS011;3781;42.272;22.658;2023-04-12T11:53:25;0.10;;;0.10;;
7479;SDS011;3781;42.272;22.658;2023-04-12T11:55:53;0.40;;;0.40;;
7479;SDS011;3781;42.272;22.658;2023-04-12T11:58:22;2.17;;;1.17;;
7479;SDS011;3781;42.272;22.658;2023-04-12T12:00:51;2.77;;;0.50;;
7479;SDS011;3781;42.272;22.658;2023-04-12T12:03:18;6.50;;;1.70;;
7479;SDS011;3781;42.272;22.658;2023-04-12T12:05:46;1.00;;;0.70;;
7479;SDS011;3781;42.272;22.658;2023-04-12T12:08:14;1.40;;;0.73;;
7479;SDS011;3781;42.272;22.658;2023-04-12T12:10:42;1.20;;;0.63;;
7479;SDS011;3781;42.272;22.658;2023-04-12T12:13:09;1.43;;;1.13;;
7479;SDS011;3781;42.272;22.658;2023-04-12T12:15:37;0.73;;;0.70;;
7479;SDS011;3781;42.272;22.658;2023-04-12T12:18:05;0.40;;;0.10;;
7479;SDS011;3781;42.272;22.658;2023-04-12T12:20:38;1.50;;;0.60;;
7479;SDS011;3781;42.272;22.658;2023-04-12T12:23:05;9.23;;;0.43;;
7479;SDS011;3781;42.272;22.658;2023-04-12T12:25:34;2.40;;;1.60;;
7479;SDS011;3781;42.272;22.658;2023-04-12T12:28:01;3.87;;;1.33;;
7479;SDS011;3781;42.272;22.658;2023-04-12T12:30:29;3.47;;;2.00;;
7479;SDS011;3781;42.272;22.658;2023-04-12T12:32:56;5.60;;;1.00;;
7479;SDS011;3781;42.272;22.658;2023-04-12T12:35:23;0.77;;;0.40;;
7479;SDS011;3781;42.272;22.658;2023-04-12T12:37:51;4.83;;;1.60;;
7479;SDS011;3781;42.272;22.658;2023-04-12T12:40:27;0.47;;;0.47;;
7479;SDS011;3781;42.272;22.658;2023-04-12T12:42:57;2.53;;;1.00;;
7479;SDS011;3781;42.272;22.658;2023-04-12T12:45:25;3.93;;;0.70;;
7479;SDS011;3781;42.272;22.658;2023-04-12T12:47:53;1.83;;;0.77;;
7479;SDS011;3781;42.272;22.658;2023-04-12T12:50:23;1.60;;;0.80;;
7479;SDS011;3781;42.272;22.658;2023-04-12T12:52:51;0.83;;;0.67;;
7479;SDS011;3781;42.272;22.658;2023-04-12T12:55:20;0.67;;;0.67;;
7479;SDS011;3781;42.272;22.658;2023-04-12T12:57:48;4.17;;;1.63;;
7479;SDS011;3781;42.272;22.658;2023-04-12T13:00:18;0.83;;;0.47;;
7479;SDS011;3781;42.272;22.658;2023-04-12T13:02:47;1.33;;;0.87;;
7479;SDS011;3781;42.272;22.658;2023-04-12T13:05:14;1.83;;;0.90;;
7479;SDS011;3781;42.272;22.658;2023-04-12T13:07:41;1.10;;;0.50;;
7479;SDS011;3781;42.272;22.658;2023-04-12T13:10:08;1.40;;;0.70;;
7479;SDS011;3781;42.272;22.658;2023-04-12T13:12:35;0.37;;;0.37;;
7479;SDS011;3781;42.272;22.658;2023-04-12T13:15:02;0.50;;;0.40;;
7479;SDS011;3781;42.272;22.658;2023-04-12T13:17:31;0.33;;;0.33;;
7479;SDS011;3781;42.272;22.658;2023-04-12T13:19:58;1.20;;;0.50;;
7479;SDS011;3781;42.272;22.658;2023-04-12T13:22:25;1.53;;;1.20;;
7479;SDS011;3781;42.272;22.658;2023-04-12T13:24:52;2.70;;;0.57;;
7479;SDS011;3781;42.272;22.658;2023-04-12T13:27:19;1.40;;;1.00;;
7479;SDS011;3781;42.272;22.658;2023-04-12T13:29:46;4.27;;;0.83;;
7479;SDS011;3781;42.272;22.658;2023-04-12T13:32:12;2.27;;;1.80;;
7479;SDS011;3781;42.272;22.658;2023-04-12T13:34:41;5.40;;;0.63;;
7479;SDS011;3781;42.272;22.658;2023-04-12T13:37:07;0.90;;;0.90;;
7479;SDS011;3781;42.272;22.658;2023-04-12T13:39:34;1.23;;;0.97;;
7479;SDS011;3781;42.272;22.658;2023-04-12T13:42:01;0.47;;;0.47;;
7479;SDS011;3781;42.272;22.658;2023-04-12T13:44:28;3.20;;;1.20;;
7479;SDS011;3781;42.272;22.658;2023-04-12T13:46:55;1.87;;;0.47;;
7479;SDS011;3781;42.272;22.658;2023-04-12T13:49:22;1.80;;;0.27;;
7479;SDS011;3781;42.272;22.658;2023-04-12T13:51:50;1.40;;;0.50;;
7479;SDS011;3781;42.272;22.658;2023-04-12T13:54:17;0.83;;;0.50;;
7479;SDS011;3781;42.272;22.658;2023-04-12T13:56:44;0.20;;;0.20;;
7479;SDS011;3781;42.272;22.658;2023-04-12T13:59:11;1.90;;;0.50;;
7479;SDS011;3781;42.272;22.658;2023-04-12T14:01:38;1.50;;;0.77;;
7479;SDS011;3781;42.272;22.658;2023-04-12T14:04:05;0.50;;;0.50;;
7479;SDS011;3781;42.272;22.658;2023-04-12T14:06:32;1.43;;;0.90;;
7479;SDS011;3781;42.272;22.658;2023-04-12T14:09:01;0.80;;;0.77;;
7479;SDS011;3781;42.272;22.658;2023-04-12T14:11:29;0.93;;;0.40;;
7479;SDS011;3781;42.272;22.658;2023-04-12T14:14:09;0.60;;;0.50;;
7479;SDS011;3781;42.272;22.658;2023-04-12T14:16:36;1.50;;;0.70;;
7479;SDS011;3781;42.272;22.658;2023-04-12T14:19:03;2.63;;;0.67;;
7479;SDS011;3781;42.272;22.658;2023-04-12T14:21:32;1.50;;;1.03;;
7479;SDS011;3781;42.272;22.658;2023-04-12T14:23:59;1.20;;;1.03;;
7479;SDS011;3781;42.272;22.658;2023-04-12T14:26:28;4.00;;;1.03;;
7479;SDS011;3781;42.272;22.658;2023-04-12T14:28:54;0.37;;;0.37;;
7479;SDS011;3781;42.272;22.658;2023-04-12T14:31:21;0.93;;;0.63;;
7479;SDS011;3781;42.272;22.658;2023-04-12T14:33:50;2.63;;;0.97;;
7479;SDS011;3781;42.272;22.658;2023-04-12T14:36:17;0.87;;;0.87;;
7479;SDS011;3781;42.272;22.658;2023-04-12T14:38:44;3.53;;;1.00;;
7479;SDS011;3781;42.272;22.658;2023-04-12T14:41:11;0.30;;;0.30;;
7479;SDS011;3781;42.272;22.658;2023-04-12T14:43:42;0.10;;;0.10;;
7479;SDS011;3781;42.272;22.658;2023-04-12T14:46:10;0.27;;;0.20;;
7479;SDS011;3781;42.272;22.658;2023-04-12T14:48:37;0.37;;;0.37;;
7479;SDS011;3781;42.272;22.658;2023-04-12T14:51:04;0.27;;;0.27;;
7479;SDS011;3781;42.272;22.658;2023-04-12T14:53:32;1.63;;;0.20;;
7479;SDS011;3781;42.272;22.658;2023-04-12T14:55:59;0.20;;;0.20;;
7479;SDS011;3781;42.272;22.658;2023-04-12T14:58:26;0.47;;;0.47;;
7479;SDS011;3781;42.272;22.658;2023-04-12T15:00:56;0.80;;;0.80;;
7479;SDS011;3781;42.272;22.658;2023-04-12T15:03:24;1.17;;;1.07;;
7479;SDS011;3781;42.272;22.658;2023-04-12T15:05:53;0.43;;;0.43;;
7479;SDS011;3781;42.272;22.658;2023-04-12T15:08:22;0.00;;;0.00;;
7479;SDS011;3781;42.272;22.658;2023-04-12T15:10:49;0.13;;;0.13;;
7479;SDS011;3781;42.272;22.658;2023-04-12T15:13:16;1.17;;;0.83;;
7479;SDS011;3781;42.272;22.658;2023-04-12T15:15:43;1.20;;;0.57;;
7479;SDS011;3781;42.272;22.658;2023-04-12T15:18:13;2.93;;;1.83;;
7479;SDS011;3781;42.272;22.658;2023-04-12T15:20:40;8.07;;;2.20;;
7479;SDS011;3781;42.272;22.658;2023-04-12T15:23:07;10.03;;;3.70;;